Time;durP1;ratioP1;P1;durP2;ratioP2;P2;SDS_P1;SDS_P2;PMS_P1;PMS_P2;Temp;Humidity;BMP_temperature;BMP_pressure;BME280_temperature;BME280_humidity;BME280_pressure;Samples;Min_cycle;Max_cycle;Signal;HPM_P1;HPM_P2
2022/07/21 17:05:38;;;;;;;12.33;5.43;;;;;;;16.93;100.00;101853.25;5112877;27;20434;-81
2022/07/21 17:08:04;;;;;;;15.97;6.67;;;;;;;16.84;100.00;101849.97;5096385;28;21419;-81
2022/07/21 17:10:29;;;;;;;17.07;7.60;;;;;;;16.85;100.00;101855.22;5095940;28;20884;-82
2022/07/21 17:12:54;;;;;;;16.40;8.50;;;;;;;16.86;100.00;101859.63;5096368;28;20051;-82
2022/07/21 17:15:20;;;;;;;16.70;9.20;;;;;;;16.91;100.00;101856.22;5095930;28;20050;-81
2022/07/21 17:17:45;;;;;;;18.13;11.43;;;;;;;16.89;100.00;101861.09;5095936;28;20044;-81
2022/07/21 17:20:11;;;;;;;19.97;11.67;;;;;;;16.94;100.00;101863.13;5095749;28;20040;-84
2022/07/21 17:22:37;;;;;;;17.37;10.33;;;;;;;16.93;100.00;101870.53;5096271;28;20101;-81
2022/07/21 17:25:05;;;;;;;15.80;11.33;;;;;;;16.92;100.00;101870.72;5076915;28;20063;-82
2022/07/21 17:27:31;;;;;;;17.50;10.70;;;;;;;16.87;100.00;101866.75;5095699;28;20180;-81
2022/07/21 17:29:57;;;;;;;18.33;11.93;;;;;;;16.90;100.00;101876.44;5096232;28;20050;-84
2022/07/21 17:32:23;;;;;;;19.33;12.37;;;;;;;16.93;100.00;101884.22;5096065;28;20410;-82
2022/07/21 17:34:48;;;;;;;16.70;12.57;;;;;;;16.91;100.00;101877.28;5095846;28;20356;-83
2022/07/21 17:37:14;;;;;;;17.23;12.73;;;;;;;16.91;100.00;101883.59;5095566;28;20047;-82
2022/07/21 17:39:40;;;;;;;17.27;12.73;;;;;;;16.92;100.00;101884.41;5088200;28;20107;-81
2022/07/21 17:42:06;;;;;;;18.20;13.20;;;;;;;16.90;100.00;101892.88;5077532;28;20036;-81
2022/07/21 17:44:32;;;;;;;20.20;13.30;;;;;;;16.90;100.00;101892.88;5095616;28;20134;-81
2022/07/21 17:46:57;;;;;;;17.90;12.83;;;;;;;16.84;100.00;101893.75;5095577;28;20048;-81
2022/07/21 17:49:22;;;;;;;20.33;13.83;;;;;;;16.81;100.00;101897.78;5095442;28;20089;-82
2022/07/21 17:51:48;;;;;;;16.97;13.80;;;;;;;16.66;100.00;101884.47;5094915;28;20044;-82
2022/07/21 17:54:13;;;;;;;19.50;13.33;;;;;;;16.72;100.00;101904.63;5095336;28;20050;-83
2022/07/21 17:56:39;;;;;;;19.13;12.87;;;;;;;16.69;100.00;101905.91;5095026;28;20035;-82
2022/07/21 17:59:04;;;;;;;19.40;14.30;;;;;;;16.68;100.00;101912.44;5088733;28;20063;-83
2022/07/21 18:01:30;;;;;;;18.87;13.30;;;;;;;16.65;100.00;101912.91;5094716;28;20047;-82
2022/07/21 18:03:57;;;;;;;17.83;13.00;;;;;;;16.61;100.00;101911.69;5094335;28;20064;-82
2022/07/21 18:06:23;;;;;;;17.77;13.37;;;;;;;16.61;100.00;101908.94;5094463;28;20115;-82
2022/07/21 18:08:49;;;;;;;14.63;11.77;;;;;;;16.57;100.00;101913.19;5094407;28;20039;-81
2022/07/21 18:11:15;;;;;;;16.57;11.70;;;;;;;16.54;100.00;101908.19;5077702;28;20062;-81
2022/07/21 18:13:40;;;;;;;17.20;11.03;;;;;;;16.54;100.00;101917.22;5098999;28;20442;-80
2022/07/21 18:16:07;;;;;;;16.83;10.30;;;;;;;16.54;100.00;101910.91;5074123;28;20035;-80
2022/07/21 18:18:33;;;;;;;14.23;10.23;;;;;;;16.50;100.00;101905.06;5086314;28;20032;-82
2022/07/21 18:20:59;;;;;;;15.03;10.20;;;;;;;16.45;100.00;101912.25;5088795;28;20050;-82
2022/07/21 18:23:24;;;;;;;19.37;10.73;;;;;;;16.47;100.00;101918.34;5091775;28;20373;-80
2022/07/21 18:25:50;;;;;;;14.40;9.57;;;;;;;16.44;100.00;101916.06;5098512;28;20051;-80
2022/07/21 18:28:15;;;;;;;17.43;10.03;;;;;;;16.41;100.00;101922.81;5098513;28;20024;-81
2022/07/21 18:30:43;;;;;;;15.83;10.03;;;;;;;16.38;100.00;101921.34;5098104;28;20055;-79
2022/07/21 18:33:09;;;;;;;17.20;10.13;;;;;;;16.38;100.00;101924.09;5090218;28;20028;-81
2022/07/21 18:35:41;;;;;;;15.90;8.70;;;;;;;16.38;100.00;101928.75;5082452;28;20089;-80
2022/07/21 18:38:07;;;;;;;19.40;9.90;;;;;;;16.36;100.00;101928.16;5083301;28;20079;-81
2022/07/21 18:40:34;;;;;;;16.33;9.90;;;;;;;16.34;100.00;101933.81;5087723;28;20028;-81
2022/07/21 18:43:02;;;;;;;16.60;10.20;;;;;;;16.34;100.00;101933.81;5094688;28;20024;-80
2022/07/21 18:45:30;;;;;;;18.23;10.40;;;;;;;16.31;100.00;101928.78;5096580;28;20061;-81
2022/07/21 18:47:55;;;;;;;18.27;11.03;;;;;;;16.33;100.00;101942.25;5083548;28;20036;-83
2022/07/21 18:50:21;;;;;;;19.63;10.90;;;;;;;16.34;100.00;101939.28;5059411;28;20040;-83
2022/07/21 18:52:47;;;;;;;16.37;11.83;;;;;;;16.36;100.00;101947.28;5077537;28;20020;-82
2022/07/21 18:55:14;;;;;;;19.27;11.47;;;;;;;16.34;100.00;101939.28;5077733;28;20032;-81
2022/07/21 18:57:40;;;;;;;17.63;12.03;;;;;;;16.34;100.00;101936.53;5059245;28;21597;-81
2022/07/21 19:00:08;;;;;;;19.27;11.93;;;;;;;16.34;100.00;101939.28;5078462;28;20123;-81
2022/07/21 19:02:34;;;;;;;19.00;11.60;;;;;;;16.33;100.00;101948.56;5076805;28;20059;-83
2022/07/21 19:05:00;;;;;;;16.27;11.60;;;;;;;16.35;100.00;101938.22;5077382;28;20501;-83
2022/07/21 19:07:25;;;;;;;15.27;10.77;;;;;;;16.35;100.00;101953.81;5078316;28;20031;-83
2022/07/21 19:09:51;;;;;;;17.87;11.10;;;;;;;16.34;100.00;101952.94;5078099;28;20032;-82
2022/07/21 19:12:16;;;;;;;18.17;10.77;;;;;;;16.34;100.00;101958.44;5078096;28;20496;-84
2022/07/21 19:14:42;;;;;;;22.90;10.63;;;;;;;16.31;100.00;101950.69;5076760;28;20024;-84
2022/07/21 19:17:07;;;;;;;17.63;9.73;;;;;;;16.34;100.00;101961.16;5076153;28;20036;-80
2022/07/21 19:19:33;;;;;;;17.60;9.87;;;;;;;16.31;100.00;101964.34;5077129;28;20032;-81
2022/07/21 19:21:59;;;;;;;19.00;10.23;;;;;;;16.27;100.00;101963.13;5076816;28;20452;-80
2022/07/21 19:24:24;;;;;;;16.30;9.83;;;;;;;16.20;100.00;101954.16;5077600;28;20071;-80
2022/07/21 19:26:50;;;;;;;19.50;9.63;;;;;;;16.18;100.00;101957.09;5076395;28;20050;-81
2022/07/21 19:29:15;;;;;;;18.43;8.93;;;;;;;16.15;100.00;101953.97;5076895;28;20501;-81
2022/07/21 19:31:41;;;;;;;17.10;8.70;;;;;;;16.12;100.00;101962.63;5077400;28;21507;-82
2022/07/21 19:34:07;;;;;;;17.13;8.57;;;;;;;16.12;100.00;101970.81;5077056;28;20047;-80
2022/07/21 19:36:32;;;;;;;17.13;7.90;;;;;;;16.10;100.00;101967.44;5076196;28;20119;-82
2022/07/21 19:38:57;;;;;;;18.03;7.77;;;;;;;16.07;100.00;101987.03;5077276;28;21456;-81
2022/07/21 19:41:23;;;;;;;14.93;7.70;;;;;;;16.06;100.00;101983.47;5058210;28;20438;-81
2022/07/21 19:43:48;;;;;;;16.37;7.83;;;;;;;16.00;100.00;101985.19;5076538;28;20439;-81
2022/07/21 19:46:15;;;;;;;16.37;7.93;;;;;;;15.99;100.00;101990.88;5076680;28;20036;-80
2022/07/21 19:48:40;;;;;;;14.93;7.83;;;;;;;15.94;100.00;101991.53;5077186;28;20046;-81
2022/07/21 19:51:05;;;;;;;17.73;7.70;;;;;;;15.95;100.00;102000.56;5076217;28;20036;-79
2022/07/21 19:53:33;;;;;;;16.13;7.40;;;;;;;15.93;100.00;102000.78;5076152;28;20384;-80
2022/07/21 19:56:00;;;;;;;15.37;6.97;;;;;;;15.88;100.00;102002.50;5075025;28;20039;-81
2022/07/21 19:58:25;;;;;;;16.20;7.47;;;;;;;15.87;100.00;102007.16;5076024;28;20150;-82
2022/07/21 20:00:51;;;;;;;11.30;6.47;;;;;;;15.85;100.00;102001.06;5057814;28;20388;-81
2022/07/21 20:03:16;;;;;;;14.37;7.10;;;;;;;15.85;100.00;102007.34;5076319;28;20452;-81
2022/07/21 20:05:41;;;;;;;16.17;7.00;;;;;;;15.83;100.00;102009.47;5076056;28;20039;-81
2022/07/21 20:08:07;;;;;;;15.83;6.80;;;;;;;15.88;100.00;102022.47;5076768;28;20601;-83
2022/07/21 20:10:33;;;;;;;15.40;6.43;;;;;;;15.88;100.00;102016.19;5075621;28;20367;-82
2022/07/21 20:12:58;;;;;;;16.73;6.17;;;;;;;15.90;100.00;102019.50;5076702;28;20028;-81
2022/07/21 20:15:24;;;;;;;13.33;6.33;;;;;;;15.82;100.00;102012.44;5070290;28;20036;-80
2022/07/21 20:17:49;;;;;;;16.07;6.70;;;;;;;15.89;100.00;102020.59;5076043;28;20295;-81
2022/07/21 20:20:16;;;;;;;15.43;6.70;;;;;;;15.93;100.00;102030.03;5057640;28;20426;-81
2022/07/21 20:22:42;;;;;;;15.93;7.30;;;;;;;15.88;100.00;102019.72;5075717;28;20526;-80
2022/07/21 20:25:08;;;;;;;19.00;7.70;;;;;;;15.91;100.00;102027.53;5076817;28;20039;-81
2022/07/21 20:27:33;;;;;;;14.63;6.93;;;;;;;15.91;100.00;102030.25;5075387;28;20093;-84
2022/07/21 20:30:01;;;;;;;16.37;7.23;;;;;;;15.91;100.00;102023.94;5076399;28;20029;-82
2022/07/21 20:32:26;;;;;;;16.27;6.77;;;;;;;15.89;100.00;102018.69;5075553;28;20065;-81
2022/07/21 20:34:52;;;;;;;14.13;6.50;;;;;;;15.86;100.00;102022.69;5076487;28;20483;-81
2022/07/21 20:37:17;;;;;;;14.50;6.50;;;;;;;15.86;100.00;102019.97;5075694;28;20145;-81
2022/07/21 20:39:43;;;;;;;12.87;6.23;;;;;;;15.81;100.00;102011.56;5074983;28;20200;-82
2022/07/21 20:42:08;;;;;;;13.13;5.40;;;;;;;15.87;100.00;102020.81;5076385;28;20052;-81
2022/07/21 20:44:34;;;;;;;16.50;5.60;;;;;;;15.88;100.00;102022.47;5075881;28;20044;-80
2022/07/21 20:46:59;;;;;;;13.43;4.93;;;;;;;15.86;100.00;102021.88;5075595;28;20090;-81
2022/07/21 20:49:25;;;;;;;14.70;5.17;;;;;;;15.81;100.00;102010.75;5074922;28;20043;-84
2022/07/21 20:51:50;;;;;;;13.90;4.53;;;;;;;15.87;100.00;102020.81;5069207;28;20516;-82
2022/07/21 20:54:15;;;;;;;15.87;5.00;;;;;;;15.87;100.00;102015.34;5075752;28;20483;-81
2022/07/21 20:56:41;;;;;;;14.93;4.77;;;;;;;15.75;100.00;102006.97;5068570;28;20065;-80
2022/07/21 20:59:06;;;;;;;9.40;5.23;;;;;;;15.83;100.00;102022.31;5075827;28;20645;-81
2022/07/21 21:01:31;;;;;;;15.90;5.40;;;;;;;15.82;100.00;102023.34;5075586;28;21426;-81
2022/07/21 21:03:57;;;;;;;15.30;5.40;;;;;;;15.80;100.00;102022.72;5075035;28;20144;-80
2022/07/21 21:06:22;;;;;;;16.23;5.73;;;;;;;15.78;100.00;102024.81;5057242;28;20035;-80
2022/07/21 21:08:50;;;;;;;14.67;5.50;;;;;;;15.76;100.00;102033.25;5075495;28;20442;-79
2022/07/21 21:11:15;;;;;;;12.60;5.63;;;;;;;15.75;100.00;102027.97;5075495;28;20087;-82
2022/07/21 21:13:41;;;;;;;15.10;5.93;;;;;;;15.72;100.00;102028.41;5075506;28;20044;-80
2022/07/21 21:16:08;;;;;;;15.87;6.13;;;;;;;15.69;100.00;102029.69;5074910;28;20081;-81
2022/07/21 21:18:33;;;;;;;13.87;5.93;;;;;;;15.72;100.00;102033.88;5075205;28;20032;-80
2022/07/21 21:20:58;;;;;;;14.97;6.37;;;;;;;15.67;100.00;102026.34;5075525;28;20043;-81
2022/07/21 21:23:24;;;;;;;16.17;5.73;;;;;;;15.68;100.00;102025.28;5070487;28;20115;-80
2022/07/21 21:25:51;;;;;;;15.73;5.80;;;;;;;15.70;100.00;102037.66;5060836;28;20032;-80
2022/07/21 21:28:18;;;;;;;13.63;5.63;;;;;;;15.67;100.00;102032.63;5078023;28;20049;-80
2022/07/21 21:30:44;;;;;;;14.50;5.10;;;;;;;15.66;100.00;102036.41;5090508;28;20050;-80
2022/07/21 21:33:09;;;;;;;16.67;5.60;;;;;;;15.72;100.00;102039.34;5065971;28;20483;-80
2022/07/21 21:35:35;;;;;;;17.43;5.63;;;;;;;15.65;100.00;102032.03;5082906;28;20458;-80
2022/07/21 21:38:00;;;;;;;14.03;5.37;;;;;;;15.69;100.00;102041.47;5084723;28;20024;-80
2022/07/21 21:40:26;;;;;;;12.83;5.10;;;;;;;15.66;100.00;102043.78;5083609;28;20040;-80
2022/07/21 21:42:51;;;;;;;14.47;5.60;;;;;;;15.64;100.00;102038.53;5083583;28;20028;-80
2022/07/21 21:45:16;;;;;;;14.13;5.27;;;;;;;15.63;100.00;102041.50;5082648;28;20044;-80
2022/07/21 21:47:42;;;;;;;12.93;5.47;;;;;;;15.63;100.00;102042.31;5064153;28;20039;-80
2022/07/21 21:50:07;;;;;;;12.00;5.40;;;;;;;15.63;100.00;102053.25;5067591;28;20055;-79
2022/07/21 21:52:33;;;;;;;12.23;5.10;;;;;;;15.59;100.00;102054.72;5087009;28;20407;-80
2022/07/21 21:54:58;;;;;;;11.80;5.27;;;;;;;15.60;100.00;102052.81;5088221;28;20028;-82
2022/07/21 21:57:23;;;;;;;12.93;5.20;;;;;;;15.50;100.00;102045.09;5085893;28;20042;-80
2022/07/21 21:59:49;;;;;;;12.10;5.70;;;;;;;15.56;100.00;102057.91;5087783;28;20044;-81
2022/07/21 22:02:14;;;;;;;11.23;4.80;;;;;;;15.57;100.00;102054.13;5086259;28;20074;-79
2022/07/21 22:04:40;;;;;;;10.37;5.17;;;;;;;15.52;100.00;102053.94;5089683;28;20064;-80
2022/07/21 22:07:05;;;;;;;11.13;5.10;;;;;;;15.55;100.00;102063.59;5086205;28;20028;-80
2022/07/21 22:09:30;;;;;;;11.43;4.60;;;;;;;15.57;100.00;102069.66;5089116;28;20031;-80
2022/07/21 22:11:56;;;;;;;9.07;4.90;;;;;;;15.41;100.00;102049.13;5087254;28;20093;-80
2022/07/21 22:14:21;;;;;;;10.60;5.13;;;;;;;15.53;100.00;102066.53;5092412;28;20032;-79
2022/07/21 22:16:46;;;;;;;11.80;4.70;;;;;;;15.50;100.00;102058.75;5087730;28;20024;-80
2022/07/21 22:19:12;;;;;;;11.77;4.97;;;;;;;15.52;100.00;102067.59;5086099;28;20170;-79
2022/07/21 22:21:37;;;;;;;9.80;4.70;;;;;;;15.53;100.00;102069.28;5085077;28;20634;-80
2022/07/21 22:24:03;;;;;;;11.07;4.83;;;;;;;15.49;100.00;102063.38;5085402;28;20036;-80
2022/07/21 22:26:30;;;;;;;11.07;4.83;;;;;;;15.50;100.00;102069.69;5086942;28;20033;-80
2022/07/21 22:28:56;;;;;;;15.13;4.87;;;;;;;15.43;100.00;102050.56;5084544;28;20036;-79
2022/07/21 22:31:22;;;;;;;15.47;4.73;;;;;;;15.46;100.00;102052.03;5086022;28;20517;-80
2022/07/21 22:33:48;;;;;;;10.80;4.93;;;;;;;15.50;100.00;102059.59;5087807;28;20028;-79
2022/07/21 22:36:13;;;;;;;11.47;5.20;;;;;;;15.49;100.00;102057.94;5085987;28;20058;-80
2022/07/21 22:38:39;;;;;;;10.03;5.37;;;;;;;15.49;100.00;102063.38;5087210;28;20562;-80
2022/07/21 22:41:05;;;;;;;13.20;5.37;;;;;;;15.49;100.00;102052.47;5085724;28;20032;-79
2022/07/21 22:43:31;;;;;;;13.23;6.07;;;;;;;15.47;100.00;102060.03;5067195;28;20020;-79
2022/07/21 22:45:57;;;;;;;15.83;6.50;;;;;;;15.49;100.00;102068.00;5067088;28;20043;-79
2022/07/21 22:48:22;;;;;;;15.00;6.17;;;;;;;15.48;100.00;102066.34;5089796;28;20062;-81
2022/07/21 22:50:48;;;;;;;12.70;6.30;;;;;;;15.48;100.00;102064.44;5088614;28;20027;-83
2022/07/21 22:53:13;;;;;;;11.20;6.57;;;;;;;15.49;100.00;102062.53;5088404;28;20024;-79
2022/07/21 22:55:38;;;;;;;13.77;7.00;;;;;;;15.47;100.00;102065.47;5084747;28;20590;-79
2022/07/21 22:58:04;;;;;;;13.00;6.80;;;;;;;15.44;100.00;102060.47;5089411;28;20031;-82
2022/07/21 23:00:30;;;;;;;13.47;7.63;;;;;;;15.44;100.00;102065.91;5084626;28;20027;-80
2022/07/21 23:02:55;;;;;;;14.63;7.23;;;;;;;15.45;100.00;102064.00;5087495;28;20139;-79
2022/07/21 23:05:21;;;;;;;14.47;7.70;;;;;;;15.45;100.00;102066.75;5084914;28;20064;-79
2022/07/21 23:07:47;;;;;;;15.93;7.57;;;;;;;15.41;100.00;102060.88;5088538;28;20390;-79
2022/07/21 23:10:13;;;;;;;14.37;6.93;;;;;;;15.33;100.00;102048.31;5089093;28;20024;-81
2022/07/21 23:12:39;;;;;;;10.37;7.03;;;;;;;15.35;100.00;102050.81;5087004;28;20031;-79
2022/07/21 23:15:07;;;;;;;13.23;6.87;;;;;;;15.36;100.00;102060.69;5085112;28;20414;-79
2022/07/21 23:17:32;;;;;;;12.87;7.23;;;;;;;15.26;100.00;102038.44;5057633;28;20075;-79
2022/07/21 23:19:57;;;;;;;12.03;6.83;;;;;;;15.27;100.00;102046.44;5086533;28;20047;-79
2022/07/21 23:22:23;;;;;;;10.43;6.87;;;;;;;15.30;100.00;102047.88;5083727;28;20475;-80
2022/07/21 23:24:48;;;;;;;16.97;6.80;;;;;;;15.33;100.00;102055.66;5085390;28;20027;-79
2022/07/21 23:27:13;;;;;;;12.73;6.30;;;;;;;15.29;100.00;102052.50;5084750;28;20114;-82
2022/07/21 23:29:39;;;;;;;14.30;6.83;;;;;;;15.27;100.00;102054.63;5086174;28;20032;-79
2022/07/21 23:32:05;;;;;;;12.93;6.47;;;;;;;15.28;100.00;102056.28;5088301;28;20061;-79
2022/07/21 23:34:30;;;;;;;10.77;6.60;;;;;;;15.23;100.00;102045.19;5083816;28;20032;-79
2022/07/21 23:36:55;;;;;;;12.97;6.07;;;;;;;15.21;100.00;102050.00;5065884;28;20069;-79
2022/07/21 23:39:21;;;;;;;10.30;5.57;;;;;;;15.18;100.00;102055.91;5085088;28;22162;-79
2022/07/21 23:41:46;;;;;;;9.37;5.50;;;;;;;15.19;100.00;102054.88;5067911;28;20434;-79
2022/07/21 23:44:11;;;;;;;12.37;5.77;;;;;;;15.10;100.00;102048.78;5068454;28;20123;-80
2022/07/21 23:46:37;;;;;;;12.97;6.27;;;;;;;15.10;100.00;102053.41;5085080;28;20055;-79
2022/07/21 23:49:02;;;;;;;12.77;5.83;;;;;;;15.09;100.00;102051.72;5083423;28;20040;-79
2022/07/21 23:51:28;;;;;;;12.57;6.40;;;;;;;15.02;100.00;102044.38;5086459;28;20028;-79
2022/07/21 23:53:54;;;;;;;11.73;5.90;;;;;;;15.00;100.00;102051.09;5083997;28;20129;-79
2022/07/21 23:56:19;;;;;;;13.47;5.83;;;;;;;14.97;100.00;102049.66;5056374;28;20069;-80
2022/07/21 23:58:44;;;;;;;13.03;5.70;;;;;;;14.92;100.00;102046.72;5070069;28;20035;-79
